Time,TemperatureF,DewpointF,PressureIn,WindDirection,WindDirectionDegrees,WindSpeedMPH,WindSpeedGustMPH,Humidity,HourlyPrecipIn,Conditions,Clouds,dailyrainin,SoftwareType,DateUTC
2013-11-14 00:11:00,33.0,31.0,-100.00,SW,224,2.0,12.0,92,-99.99,,,-99.99,,2013-11-14 09:11:00,
2013-11-14 00:21:00,34.0,32.0,-100.00,SSW,209,11.0,18.0,91,-99.99,,,-99.99,,2013-11-14 09:21:00,
2013-11-14 00:33:00,34.0,32.0,-100.00,SSW,209,11.0,18.0,91,-99.99,,,-99.99,,2013-11-14 09:33:00,
2013-11-14 00:43:00,34.0,32.0,-100.00,SSW,209,11.0,18.0,91,-99.99,,,-99.99,,2013-11-14 09:43:00,
2013-11-14 00:52:00,35.0,33.0,-100.00,SW,217,3.0,14.0,91,-99.99,,,-99.99,,2013-11-14 09:52:00,
2013-11-14 01:03:00,35.0,33.0,-100.00,SW,217,3.0,14.0,91,-99.99,,,-99.99,,2013-11-14 10:03:00,
2013-11-14 01:12:00,35.0,33.0,-100.00,SW,217,3.0,14.0,91,-99.99,,,-99.99,,2013-11-14 10:12:00,
2013-11-14 02:42:00,36.0,35.0,-100.00,SSW,201,9.0,29.0,96,0.00,,,-99.99,,2013-11-14 11:42:00,
2013-11-14 02:52:00,37.0,35.0,-100.00,SW,217,12.0,28.0,93,-99.99,,,-99.99,,2013-11-14 11:52:00,
2013-11-14 03:02:00,37.0,35.0,-100.00,SW,217,12.0,28.0,93,-99.99,,,-99.99,,2013-11-14 12:02:00,
2013-11-14 03:12:00,37.0,35.0,-100.00,SW,217,12.0,28.0,93,-99.99,,,-99.99,,2013-11-14 12:12:00,
2013-11-14 03:21:00,37.0,35.0,-100.00,SW,218,16.0,41.0,93,-99.99,,,-99.99,,2013-11-14 12:21:00,
2013-11-14 03:42:00,37.0,34.0,-100.00,SSW,210,13.0,27.0,90,0.00,,,-99.99,,2013-11-14 12:42:00,
2013-11-14 03:52:00,37.0,34.0,-100.00,SSW,210,13.0,27.0,90,0.00,,,-99.99,,2013-11-14 12:52:00,
2013-11-14 04:11:00,38.0,35.0,-100.00,SW,230,5.0,23.0,89,-99.99,,,-99.99,,2013-11-14 13:11:00,
2013-11-14 04:22:00,36.0,34.0,-100.00,SW,228,8.0,17.0,92,-99.99,,,-99.99,,2013-11-14 13:22:00,
2013-11-14 04:42:00,37.0,34.0,-100.00,SW,227,18.0,32.0,90,0.00,,,-99.99,,2013-11-14 13:42:00,
2013-11-14 04:52:00,37.0,35.0,-100.00,SSW,207,31.0,49.0,92,-99.99,,,-99.99,,2013-11-14 13:52:00,
2013-11-14 05:11:00,37.0,35.0,-100.00,SSW,212,25.0,52.0,94,-99.99,,,-99.99,,2013-11-14 14:11:00,
2013-11-14 05:21:00,36.0,35.0,-100.00,SSW,213,18.0,32.0,96,-99.99,,,-99.99,,2013-11-14 14:21:00,
2013-11-14 05:22:00,37.0,36.0,-100.00,SW,214,21.0,48.0,95,-99.99,,,-99.99,,2013-11-14 14:22:00,
2013-11-14 05:42:00,37.0,36.0,-100.00,SSW,198,16.0,36.0,96,0.00,,,-99.99,,2013-11-14 14:42:00,
2013-11-14 05:52:00,36.0,35.0,-100.00,SSW,213,18.0,32.0,96,-99.99,,,-99.99,,2013-11-14 14:52:00,
2013-11-14 06:02:00,36.0,35.0,-100.00,SSW,213,18.0,32.0,96,-99.99,,,-99.99,,2013-11-14 15:02:00,
2013-11-14 06:11:00,36.0,35.0,-100.00,SSW,213,18.0,32.0,96,-99.99,,,-99.99,,2013-11-14 15:11:00,
2013-11-14 06:43:00,36.0,35.0,-100.00,SSW,204,18.0,35.0,95,0.00,,,-99.99,,2013-11-14 15:43:00,
2013-11-14 06:53:00,37.0,35.0,-100.00,SW,221,21.0,47.0,92,-99.99,,,-99.99,,2013-11-14 15:53:00,
2013-11-14 07:13:00,37.0,34.0,-100.00,SSW,205,24.0,44.0,90,-99.99,,,-99.99,,2013-11-14 16:13:00,
2013-11-14 07:23:00,37.0,34.0,-100.00,SSW,205,24.0,44.0,90,-99.99,,,-99.99,,2013-11-14 16:23:00,
2013-11-14 07:33:00,37.0,34.0,-100.00,SSW,205,24.0,44.0,90,-99.99,,,-99.99,,2013-11-14 16:33:00,
2013-11-14 07:52:00,38.0,33.0,-100.00,SW,226,20.0,39.0,82,-99.99,,,-99.99,,2013-11-14 16:52:00,
2013-11-14 08:02:00,38.0,33.0,-100.00,SW,226,20.0,39.0,82,-99.99,,,-99.99,,2013-11-14 17:02:00,
2013-11-14 08:12:00,38.0,33.0,-100.00,SW,226,20.0,39.0,82,-99.99,,,-99.99,,2013-11-14 17:12:00,
2013-11-14 08:22:00,37.0,33.0,-100.00,SW,217,21.0,40.0,85,-99.99,,,-99.99,,2013-11-14 17:22:00,
2013-11-14 08:42:00,37.0,34.0,-100.00,SW,229,21.0,43.0,87,0.00,,,-99.99,,2013-11-14 17:42:00,
2013-11-14 08:52:00,37.0,34.0,-100.00,SSW,205,21.0,49.0,88,-99.99,,,-99.99,,2013-11-14 17:52:00,
2013-11-14 09:12:00,36.0,33.0,-100.00,SSW,204,21.0,41.0,89,-99.99,,,-99.99,,2013-11-14 18:12:00,
2013-11-14 09:21:00,36.0,33.0,-100.00,SSW,204,21.0,41.0,89,-99.99,,,-99.99,,2013-11-14 18:21:00,
2013-11-14 09:42:00,36.0,33.0,-100.00,SW,216,17.0,40.0,89,0.00,,,-99.99,,2013-11-14 18:42:00,
2013-11-14 09:52:00,36.0,33.0,-100.00,SW,216,17.0,40.0,89,0.00,,,-99.99,,2013-11-14 18:52:00,
2013-11-14 10:01:00,36.0,33.0,-100.00,SW,216,17.0,40.0,89,0.00,,,-99.99,,2013-11-14 19:01:00,
2013-11-14 11:22:00,34.0,34.0,-100.00,SSW,211,11.0,18.0,98,-99.99,,,-99.99,,2013-11-14 20:22:00,
2013-11-14 11:42:00,33.0,33.0,-100.00,SW,219,9.0,18.0,99,0.00,,,-99.99,,2013-11-14 20:42:00,
2013-11-14 11:52:00,33.0,33.0,-100.00,SSW,208,8.0,21.0,99,-99.99,,,-99.99,,2013-11-14 20:52:00,
2013-11-14 12:11:00,33.0,33.0,-100.00,SW,214,10.0,19.0,99,-99.99,,,-99.99,,2013-11-14 21:11:00,
2013-11-14 12:21:00,33.0,33.0,-100.00,SSW,210,3.0,10.0,99,-99.99,,,-99.99,,2013-11-14 21:21:00,
2013-11-14 12:22:00,33.0,33.0,-100.00,SW,214,10.0,19.0,99,-99.99,,,-99.99,,2013-11-14 21:22:00,
2013-11-14 12:43:00,33.0,33.0,-100.00,SW,217,6.0,12.0,99,0.00,,,-99.99,,2013-11-14 21:43:00,
2013-11-14 12:53:00,33.0,33.0,-100.00,SSW,210,3.0,10.0,99,-99.99,,,-99.99,,2013-11-14 21:53:00,
2013-11-14 13:03:00,33.0,33.0,-100.00,SSW,210,3.0,10.0,99,-99.99,,,-99.99,,2013-11-14 22:03:00,
2013-11-14 13:13:00,33.0,33.0,-100.00,SSW,210,3.0,10.0,99,-99.99,,,-99.99,,2013-11-14 22:13:00,
2013-11-14 13:21:00,33.0,33.0,-100.00,SSW,202,2.0,5.0,99,-99.99,,,-99.99,,2013-11-14 22:21:00,
2013-11-14 13:43:00,33.0,33.0,-100.00,SW,216,2.0,3.0,99,0.00,,,-99.99,,2013-11-14 22:43:00,
2013-11-14 13:53:00,33.0,33.0,-100.00,SSW,202,2.0,5.0,99,-99.99,,,-99.99,,2013-11-14 22:53:00,
2013-11-14 14:02:00,33.0,33.0,-100.00,SSW,202,2.0,5.0,99,-99.99,,,-99.99,,2013-11-14 23:02:00,
2013-11-14 14:12:00,33.0,33.0,-100.00,SSW,202,2.0,5.0,99,-99.99,,,-99.99,,2013-11-14 23:12:00,
2013-11-14 14:43:00,34.0,34.0,-100.00,South,190,0.0,2.0,99,0.00,,,-99.99,,2013-11-14 23:43:00,
2013-11-14 14:52:00,36.0,35.0,-100.00,NW,325,0.0,2.0,97,-99.99,,,-99.99,,2013-11-14 23:52:00,
2013-11-14 15:01:00,36.0,35.0,-100.00,NW,325,0.0,2.0,97,-99.99,,,-99.99,,2013-11-15 00:01:00,
2013-11-14 15:11:00,36.0,35.0,-100.00,NW,325,0.0,2.0,97,-99.99,,,-99.99,,2013-11-15 00:11:00,
2013-11-14 15:21:00,36.0,35.0,-100.00,NW,325,0.0,2.0,97,-99.99,,,-99.99,,2013-11-15 00:21:00,
2013-11-14 15:42:00,40.0,33.0,-100.00,NNE,24,3.0,5.0,76,0.00,,,-99.99,,2013-11-15 00:42:00,
2013-11-14 15:52:00,35.0,27.0,-100.00,NNE,15,2.0,13.0,71,-99.99,,,-99.99,,2013-11-15 00:52:00,
2013-11-14 16:12:00,33.0,28.0,-100.00,NNE,23,4.0,11.0,83,-99.99,,,-99.99,,2013-11-15 01:12:00,
2013-11-14 16:22:00,32.0,29.0,-100.00,NE,39,5.0,10.0,90,-99.99,,,-99.99,,2013-11-15 01:22:00,
2013-11-14 16:32:00,32.0,29.0,-100.00,NE,39,5.0,10.0,90,-99.99,,,-99.99,,2013-11-15 01:32:00,
2013-11-14 16:42:00,32.0,29.0,-100.00,NE,39,5.0,10.0,90,-99.99,,,-99.99,,2013-11-15 01:42:00,
2013-11-14 16:52:00,32.0,22.0,-100.00,NNE,32,11.0,24.0,66,-99.99,,,-99.99,,2013-11-15 01:52:00,
2013-11-14 17:11:00,31.0,24.0,-100.00,North,10,3.0,10.0,76,-99.99,,,-99.99,,2013-11-15 02:11:00,
2013-11-14 17:22:00,31.0,24.0,-100.00,North,10,3.0,10.0,76,-99.99,,,-99.99,,2013-11-15 02:22:00,
2013-11-14 17:32:00,31.0,24.0,-100.00,North,10,3.0,10.0,76,-99.99,,,-99.99,,2013-11-15 02:32:00,
2013-11-14 18:12:00,29.0,28.0,-100.00,NE,37,9.0,16.0,96,-99.99,,,-99.99,,2013-11-15 03:12:00,
2013-11-14 18:21:00,29.0,28.0,-100.00,NE,37,9.0,16.0,96,-99.99,,,-99.99,,2013-11-15 03:21:00,
2013-11-14 18:44:00,29.0,24.0,-100.00,NNE,31,9.0,19.0,81,0.00,,,-99.99,,2013-11-15 03:44:00,
2013-11-14 18:54:00,29.0,24.0,-100.00,NNE,31,9.0,19.0,81,0.00,,,-99.99,,2013-11-15 03:54:00,
2013-11-14 19:14:00,28.0,22.0,-100.00,NE,38,8.0,21.0,77,-99.99,,,-99.99,,2013-11-15 04:14:00,
2013-11-14 19:23:00,28.0,21.0,-100.00,NE,34,12.0,21.0,74,-99.99,,,-99.99,,2013-11-15 04:23:00,
2013-11-14 19:42:00,29.0,20.0,-100.00,NNE,21,14.0,28.0,68,0.00,,,-99.99,,2013-11-15 04:42:00,
2013-11-14 19:53:00,29.0,20.0,-100.00,NNE,23,11.0,26.0,68,-99.99,,,-99.99,,2013-11-15 04:53:00,
2013-11-14 20:13:00,28.0,20.0,-100.00,NNE,29,12.0,27.0,70,-99.99,,,-99.99,,2013-11-15 05:13:00,
2013-11-14 20:22:00,28.0,20.0,-100.00,NNE,29,12.0,27.0,70,-99.99,,,-99.99,,2013-11-15 05:22:00,
2013-11-14 20:33:00,28.0,20.0,-100.00,NNE,29,12.0,27.0,70,-99.99,,,-99.99,,2013-11-15 05:33:00,
2013-11-14 21:12:00,27.0,19.0,-100.00,NNE,33,10.0,27.0,72,-99.99,,,-99.99,,2013-11-15 06:12:00,
2013-11-14 21:23:00,27.0,19.0,-100.00,NNE,33,10.0,27.0,72,-99.99,,,-99.99,,2013-11-15 06:23:00,
2013-11-14 21:32:00,27.0,19.0,-100.00,NNE,33,10.0,27.0,72,-99.99,,,-99.99,,2013-11-15 06:32:00,
2013-11-14 21:53:00,27.0,18.0,-100.00,NNE,25,16.0,28.0,69,-99.99,,,-99.99,,2013-11-15 06:53:00,
2013-11-14 22:12:00,27.0,17.0,-100.00,NNE,25,18.0,36.0,66,-99.99,,,-99.99,,2013-11-15 07:12:00,
2013-11-14 22:21:00,27.0,16.0,-100.00,NE,34,17.0,37.0,64,-99.99,,,-99.99,,2013-11-15 07:21:00,
2013-11-14 22:42:00,26.0,17.0,-100.00,NNE,31,18.0,32.0,67,0.00,,,-99.99,,2013-11-15 07:42:00,
2013-11-14 22:52:00,26.0,16.0,-100.00,NNE,33,14.0,37.0,65,-99.99,,,-99.99,,2013-11-15 07:52:00,
2013-11-14 23:11:00,26.0,16.0,-100.00,NNE,31,14.0,33.0,64,-99.99,,,-99.99,,2013-11-15 08:11:00,
2013-11-14 23:21:00,26.0,16.0,-100.00,NNE,20,17.0,32.0,64,-99.99,,,-99.99,,2013-11-15 08:21:00,
2013-11-14 23:32:00,26.0,16.0,-100.00,NNE,20,17.0,32.0,64,-99.99,,,-99.99,,2013-11-15 08:32:00,
2013-11-14 23:42:00,26.0,16.0,-100.00,NNE,20,17.0,32.0,64,-99.99,,,-99.99,,2013-11-15 08:42:00,
2013-11-14 23:51:00,26.0,14.0,-100.00,NE,34,16.0,33.0,60,-99.99,,,-99.99,,2013-11-15 08:51:00,
2013-11-14 23:52:00,26.0,15.0,-100.00,NE,37,13.0,31.0,62,-99.99,,,-99.99,,2013-11-15 08:52:00,